LGEL weather

Elefsis Airport
Elefsina, Attica, Greece

Public forecast

Using degrees Celsius for public forecast. Weather courtesy of forecast.io.

METAR (pilot weather report)

Retrieved 2018/06/21 18:20 UTC (31 minutes ago):

LGEL 211820Z 16006KT 9999 FEW025 SCT070 25/17 Q1014

TAF (pilot weather forecast)

Retrieved 2018/06/21 18:12 UTC (39 minutes ago):

TAF LGEL 211700Z 2118/2218 VRB05KT 9999 FEW025 SCT070 BECMG 2209/2211 22010KT